sensor_id;sensor_type;location;lat;lon;timestamp;P1;durP1;ratioP1;P2;durP2;ratioP2
39948;SDS011;29070;48.102;-1.652;2022-11-11T00:04:22;12.88;;;4.25;;
39948;SDS011;29070;48.102;-1.652;2022-11-11T00:09:22;6.87;;;3.47;;
39948;SDS011;29070;48.102;-1.652;2022-11-11T00:14:23;10.47;;;3.73;;
39948;SDS011;29070;48.102;-1.652;2022-11-11T00:19:23;11.47;;;4.57;;
39948;SDS011;29070;48.102;-1.652;2022-11-11T00:24:42;7.93;;;3.33;;
39948;SDS011;29070;48.102;-1.652;2022-11-11T00:30:00;11.27;;;3.90;;
39948;SDS011;29070;48.102;-1.652;2022-11-11T00:35:01;8.60;;;3.83;;
39948;SDS011;29070;48.102;-1.652;2022-11-11T00:40:20;10.20;;;3.95;;
39948;SDS011;29070;48.102;-1.652;2022-11-11T00:45:20;11.87;;;4.17;;
39948;SDS011;29070;48.102;-1.652;2022-11-11T00:50:24;7.10;;;3.17;;
39948;SDS011;29070;48.102;-1.652;2022-11-11T00:55:45;8.90;;;3.33;;
39948;SDS011;29070;48.102;-1.652;2022-11-11T01:00:45;10.90;;;4.10;;
39948;SDS011;29070;48.102;-1.652;2022-11-11T01:05:46;13.52;;;4.75;;
39948;SDS011;29070;48.102;-1.652;2022-11-11T01:10:47;15.05;;;5.32;;
39948;SDS011;29070;48.102;-1.652;2022-11-11T01:15:49;19.05;;;5.40;;
39948;SDS011;29070;48.102;-1.652;2022-11-11T01:20:59;11.38;;;4.95;;
39948;SDS011;29070;48.102;-1.652;2022-11-11T01:26:02;11.13;;;5.15;;
39948;SDS011;29070;48.102;-1.652;2022-11-11T01:31:04;16.05;;;5.65;;
39948;SDS011;29070;48.102;-1.652;2022-11-11T01:36:27;18.98;;;6.45;;
39948;SDS011;29070;48.102;-1.652;2022-11-11T01:41:29;11.13;;;5.50;;
39948;SDS011;29070;48.102;-1.652;2022-11-11T01:46:33;16.58;;;5.72;;
39948;SDS011;29070;48.102;-1.652;2022-11-11T01:51:37;12.23;;;6.37;;
39948;SDS011;29070;48.102;-1.652;2022-11-11T01:56:41;14.47;;;6.43;;
39948;SDS011;29070;48.102;-1.652;2022-11-11T02:01:45;9.25;;;5.10;;
39948;SDS011;29070;48.102;-1.652;2022-11-11T02:06:51;8.55;;;5.25;;
39948;SDS011;29070;48.102;-1.652;2022-11-11T02:11:53;10.48;;;5.07;;
39948;SDS011;29070;48.102;-1.652;2022-11-11T02:17:14;10.05;;;5.18;;
39948;SDS011;29070;48.102;-1.652;2022-11-11T02:22:22;9.52;;;4.78;;
39948;SDS011;29070;48.102;-1.652;2022-11-11T02:27:31;9.53;;;5.00;;
39948;SDS011;29070;48.102;-1.652;2022-11-11T02:32:35;11.00;;;5.13;;
39948;SDS011;29070;48.102;-1.652;2022-11-11T02:37:36;10.53;;;4.97;;
39948;SDS011;29070;48.102;-1.652;2022-11-11T02:42:36;9.63;;;5.13;;
39948;SDS011;29070;48.102;-1.652;2022-11-11T02:47:36;7.77;;;4.60;;
39948;SDS011;29070;48.102;-1.652;2022-11-11T02:52:37;8.47;;;4.60;;
39948;SDS011;29070;48.102;-1.652;2022-11-11T02:57:37;9.30;;;4.37;;
39948;SDS011;29070;48.102;-1.652;2022-11-11T03:02:38;9.40;;;4.70;;
39948;SDS011;29070;48.102;-1.652;2022-11-11T03:07:38;14.47;;;5.20;;
39948;SDS011;29070;48.102;-1.652;2022-11-11T03:12:38;11.27;;;5.07;;
39948;SDS011;29070;48.102;-1.652;2022-11-11T03:17:39;12.60;;;4.63;;
39948;SDS011;29070;48.102;-1.652;2022-11-11T03:22:39;11.77;;;5.03;;
39948;SDS011;29070;48.102;-1.652;2022-11-11T03:27:40;8.47;;;4.93;;
39948;SDS011;29070;48.102;-1.652;2022-11-11T03:32:42;15.23;;;5.25;;
39948;SDS011;29070;48.102;-1.652;2022-11-11T03:37:42;14.75;;;4.50;;
39948;SDS011;29070;48.102;-1.652;2022-11-11T03:43:01;17.80;;;4.53;;
39948;SDS011;29070;48.102;-1.652;2022-11-11T03:48:02;18.02;;;4.68;;
39948;SDS011;29070;48.102;-1.652;2022-11-11T03:53:03;15.02;;;5.00;;
39948;SDS011;29070;48.102;-1.652;2022-11-11T03:58:04;18.05;;;4.47;;
39948;SDS011;29070;48.102;-1.652;2022-11-11T04:08:23;9.93;;;4.28;;
39948;SDS011;29070;48.102;-1.652;2022-11-11T04:13:43;22.20;;;4.38;;
39948;SDS011;29070;48.102;-1.652;2022-11-11T04:19:04;13.25;;;3.75;;
39948;SDS011;29070;48.102;-1.652;2022-11-11T04:24:23;12.10;;;3.67;;
39948;SDS011;29070;48.102;-1.652;2022-11-11T04:29:42;16.90;;;4.28;;
39948;SDS011;29070;48.102;-1.652;2022-11-11T04:34:43;12.85;;;4.20;;
39948;SDS011;29070;48.102;-1.652;2022-11-11T04:39:45;21.08;;;4.38;;
39948;SDS011;29070;48.102;-1.652;2022-11-11T04:45:05;10.88;;;3.45;;
39948;SDS011;29070;48.102;-1.652;2022-11-11T04:50:40;23.33;;;4.15;;
39948;SDS011;29070;48.102;-1.652;2022-11-11T04:55:42;9.93;;;3.65;;
39948;SDS011;29070;48.102;-1.652;2022-11-11T05:01:02;9.60;;;3.58;;
39948;SDS011;29070;48.102;-1.652;2022-11-11T05:06:03;10.60;;;3.40;;
39948;SDS011;29070;48.102;-1.652;2022-11-11T05:11:35;12.80;;;4.30;;
39948;SDS011;29070;48.102;-1.652;2022-11-11T05:16:37;9.75;;;3.70;;
39948;SDS011;29070;48.102;-1.652;2022-11-11T05:22:06;11.18;;;3.65;;
39948;SDS011;29070;48.102;-1.652;2022-11-11T05:27:10;11.50;;;4.03;;
39948;SDS011;29070;48.102;-1.652;2022-11-11T05:32:11;10.77;;;3.78;;
39948;SDS011;29070;48.102;-1.652;2022-11-11T05:37:15;8.23;;;3.20;;
39948;SDS011;29070;48.102;-1.652;2022-11-11T05:42:16;6.50;;;2.85;;
39948;SDS011;29070;48.102;-1.652;2022-11-11T05:47:17;9.57;;;3.08;;
39948;SDS011;29070;48.102;-1.652;2022-11-11T05:52:17;12.35;;;3.33;;
39948;SDS011;29070;48.102;-1.652;2022-11-11T05:57:18;7.60;;;2.90;;
39948;SDS011;29070;48.102;-1.652;2022-11-11T06:02:18;7.80;;;3.07;;
39948;SDS011;29070;48.102;-1.652;2022-11-11T06:07:20;8.20;;;3.17;;
39948;SDS011;29070;48.102;-1.652;2022-11-11T06:12:20;7.73;;;3.03;;
39948;SDS011;29070;48.102;-1.652;2022-11-11T06:17:20;9.83;;;2.90;;
39948;SDS011;29070;48.102;-1.652;2022-11-11T06:22:21;5.90;;;2.80;;
39948;SDS011;29070;48.102;-1.652;2022-11-11T06:27:41;10.85;;;3.35;;
39948;SDS011;29070;48.102;-1.652;2022-11-11T06:32:41;8.93;;;2.80;;
39948;SDS011;29070;48.102;-1.652;2022-11-11T06:37:42;7.77;;;3.23;;
39948;SDS011;29070;48.102;-1.652;2022-11-11T06:42:42;8.10;;;2.87;;
39948;SDS011;29070;48.102;-1.652;2022-11-11T06:47:42;4.33;;;2.50;;
39948;SDS011;29070;48.102;-1.652;2022-11-11T06:52:43;8.00;;;3.08;;
39948;SDS011;29070;48.102;-1.652;2022-11-11T06:57:43;7.32;;;2.88;;
39948;SDS011;29070;48.102;-1.652;2022-11-11T07:02:44;5.53;;;2.53;;
39948;SDS011;29070;48.102;-1.652;2022-11-11T07:07:45;5.68;;;2.80;;
39948;SDS011;29070;48.102;-1.652;2022-11-11T07:12:45;11.97;;;3.10;;
39948;SDS011;29070;48.102;-1.652;2022-11-11T07:17:46;6.60;;;3.00;;
39948;SDS011;29070;48.102;-1.652;2022-11-11T07:22:46;7.70;;;2.67;;
39948;SDS011;29070;48.102;-1.652;2022-11-11T07:27:47;8.60;;;2.95;;
39948;SDS011;29070;48.102;-1.652;2022-11-11T07:32:48;10.82;;;3.55;;
39948;SDS011;29070;48.102;-1.652;2022-11-11T07:37:50;9.93;;;3.80;;
39948;SDS011;29070;48.102;-1.652;2022-11-11T07:42:51;5.32;;;2.92;;
39948;SDS011;29070;48.102;-1.652;2022-11-11T07:47:51;7.00;;;3.13;;
39948;SDS011;29070;48.102;-1.652;2022-11-11T07:52:51;11.57;;;5.20;;
39948;SDS011;29070;48.102;-1.652;2022-11-11T07:57:52;7.70;;;3.83;;
39948;SDS011;29070;48.102;-1.652;2022-11-11T08:02:52;11.52;;;3.30;;
39948;SDS011;29070;48.102;-1.652;2022-11-11T08:07:52;9.57;;;3.97;;
39948;SDS011;29070;48.102;-1.652;2022-11-11T08:12:53;8.33;;;3.73;;
39948;SDS011;29070;48.102;-1.652;2022-11-11T08:18:12;11.05;;;4.80;;
39948;SDS011;29070;48.102;-1.652;2022-11-11T08:23:12;9.30;;;4.10;;
39948;SDS011;29070;48.102;-1.652;2022-11-11T08:28:15;9.70;;;4.53;;
39948;SDS011;29070;48.102;-1.652;2022-11-11T08:33:16;10.53;;;4.53;;
39948;SDS011;29070;48.102;-1.652;2022-11-11T08:38:17;7.05;;;3.70;;
39948;SDS011;29070;48.102;-1.652;2022-11-11T08:43:17;8.03;;;3.97;;
39948;SDS011;29070;48.102;-1.652;2022-11-11T08:48:18;7.60;;;3.83;;
39948;SDS011;29070;48.102;-1.652;2022-11-11T08:53:19;8.00;;;3.92;;
39948;SDS011;29070;48.102;-1.652;2022-11-11T08:58:19;5.33;;;3.33;;
39948;SDS011;29070;48.102;-1.652;2022-11-11T09:03:20;8.43;;;3.05;;
39948;SDS011;29070;48.102;-1.652;2022-11-11T09:08:20;10.67;;;3.87;;
39948;SDS011;29070;48.102;-1.652;2022-11-11T09:13:20;10.53;;;4.30;;
39948;SDS011;29070;48.102;-1.652;2022-11-11T09:18:21;7.60;;;3.70;;
39948;SDS011;29070;48.102;-1.652;2022-11-11T09:23:21;9.30;;;3.83;;
39948;SDS011;29070;48.102;-1.652;2022-11-11T09:28:21;6.80;;;3.80;;
39948;SDS011;29070;48.102;-1.652;2022-11-11T09:33:22;5.93;;;2.80;;
39948;SDS011;29070;48.102;-1.652;2022-11-11T09:38:22;11.13;;;3.83;;
39948;SDS011;29070;48.102;-1.652;2022-11-11T09:53:52;6.95;;;3.40;;
39948;SDS011;29070;48.102;-1.652;2022-11-11T10:09:48;5.72;;;3.10;;
39948;SDS011;29070;48.102;-1.652;2022-11-11T10:14:57;10.48;;;3.60;;
39948;SDS011;29070;48.102;-1.652;2022-11-11T10:25:23;5.40;;;2.92;;
39948;SDS011;29070;48.102;-1.652;2022-11-11T10:30:25;8.48;;;3.65;;
39948;SDS011;29070;48.102;-1.652;2022-11-11T10:35:30;6.68;;;3.40;;
39948;SDS011;29070;48.102;-1.652;2022-11-11T10:50:58;6.55;;;2.92;;
39948;SDS011;29070;48.102;-1.652;2022-11-11T11:01:15;5.70;;;3.00;;
39948;SDS011;29070;48.102;-1.652;2022-11-11T11:06:21;6.97;;;3.60;;
39948;SDS011;29070;48.102;-1.652;2022-11-11T11:11:46;8.38;;;3.85;;
39948;SDS011;29070;48.102;-1.652;2022-11-11T11:16:51;6.82;;;3.42;;
39948;SDS011;29070;48.102;-1.652;2022-11-11T11:21:58;7.93;;;3.95;;
39948;SDS011;29070;48.102;-1.652;2022-11-11T11:27:01;8.65;;;3.95;;
39948;SDS011;29070;48.102;-1.652;2022-11-11T11:32:13;37.50;;;6.00;;
39948;SDS011;29070;48.102;-1.652;2022-11-11T11:37:14;7.15;;;3.75;;
39948;SDS011;29070;48.102;-1.652;2022-11-11T11:42:36;7.45;;;3.53;;
39948;SDS011;29070;48.102;-1.652;2022-11-11T11:47:42;7.30;;;3.95;;
39948;SDS011;29070;48.102;-1.652;2022-11-11T11:58:55;7.30;;;3.53;;
39948;SDS011;29070;48.102;-1.652;2022-11-11T12:09:23;7.72;;;4.47;;
39948;SDS011;29070;48.102;-1.652;2022-11-11T12:19:34;9.13;;;4.65;;
39948;SDS011;29070;48.102;-1.652;2022-11-11T12:30:26;10.75;;;5.20;;
39948;SDS011;29070;48.102;-1.652;2022-11-11T12:35:37;11.23;;;5.03;;
39948;SDS011;29070;48.102;-1.652;2022-11-11T12:51:34;8.18;;;4.50;;
39948;SDS011;29070;48.102;-1.652;2022-11-11T12:56:46;10.07;;;4.95;;
39948;SDS011;29070;48.102;-1.652;2022-11-11T13:02:15;10.45;;;4.35;;
39948;SDS011;29070;48.102;-1.652;2022-11-11T13:13:08;10.55;;;4.90;;
39948;SDS011;29070;48.102;-1.652;2022-11-11T13:18:18;10.82;;;5.10;;
39948;SDS011;29070;48.102;-1.652;2022-11-11T13:23:24;12.57;;;5.45;;
39948;SDS011;29070;48.102;-1.652;2022-11-11T13:28:27;10.15;;;5.03;;
39948;SDS011;29070;48.102;-1.652;2022-11-11T13:33:37;14.13;;;5.35;;
39948;SDS011;29070;48.102;-1.652;2022-11-11T13:38:43;10.88;;;4.75;;
39948;SDS011;29070;48.102;-1.652;2022-11-11T13:43:47;9.60;;;5.63;;
39948;SDS011;29070;48.102;-1.652;2022-11-11T13:48:50;22.60;;;6.53;;
39948;SDS011;29070;48.102;-1.652;2022-11-11T13:53:51;12.32;;;5.43;;
39948;SDS011;29070;48.102;-1.652;2022-11-11T13:58:52;10.00;;;4.85;;
39948;SDS011;29070;48.102;-1.652;2022-11-11T14:03:59;10.40;;;5.03;;
39948;SDS011;29070;48.102;-1.652;2022-11-11T14:09:02;10.35;;;4.75;;
39948;SDS011;29070;48.102;-1.652;2022-11-11T14:24:38;13.65;;;5.82;;
39948;SDS011;29070;48.102;-1.652;2022-11-11T14:29:50;11.15;;;5.85;;
39948;SDS011;29070;48.102;-1.652;2022-11-11T14:40:02;10.80;;;4.93;;
39948;SDS011;29070;48.102;-1.652;2022-11-11T14:45:49;8.95;;;4.43;;
39948;SDS011;29070;48.102;-1.652;2022-11-11T14:55:32;11.95;;;4.97;;
39948;SDS011;29070;48.102;-1.652;2022-11-11T15:00:48;10.45;;;5.28;;
39948;SDS011;29070;48.102;-1.652;2022-11-11T15:33:25;14.20;;;5.25;;
39948;SDS011;29070;48.102;-1.652;2022-11-11T15:38:37;11.38;;;5.53;;
39948;SDS011;29070;48.102;-1.652;2022-11-11T15:43:38;10.57;;;5.35;;
39948;SDS011;29070;48.102;-1.652;2022-11-11T15:48:42;9.65;;;4.45;;
39948;SDS011;29070;48.102;-1.652;2022-11-11T15:53:42;12.88;;;5.50;;
39948;SDS011;29070;48.102;-1.652;2022-11-11T15:58:43;10.15;;;5.13;;
39948;SDS011;29070;48.102;-1.652;2022-11-11T16:03:43;24.10;;;5.50;;
39948;SDS011;29070;48.102;-1.652;2022-11-11T16:08:44;12.90;;;5.65;;
39948;SDS011;29070;48.102;-1.652;2022-11-11T16:24:17;9.70;;;5.10;;
39948;SDS011;29070;48.102;-1.652;2022-11-11T16:29:22;9.85;;;5.78;;
39948;SDS011;29070;48.102;-1.652;2022-11-11T16:39:30;11.27;;;5.72;;
39948;SDS011;29070;48.102;-1.652;2022-11-11T16:49:42;11.93;;;5.82;;
39948;SDS011;29070;48.102;-1.652;2022-11-11T16:54:50;15.05;;;6.25;;
39948;SDS011;29070;48.102;-1.652;2022-11-11T17:00:00;14.05;;;6.53;;
39948;SDS011;29070;48.102;-1.652;2022-11-11T17:05:03;12.07;;;6.25;;
39948;SDS011;29070;48.102;-1.652;2022-11-11T17:15:12;12.60;;;6.45;;
39948;SDS011;29070;48.102;-1.652;2022-11-11T17:20:15;14.27;;;6.25;;
39948;SDS011;29070;48.102;-1.652;2022-11-11T17:25:17;15.02;;;6.75;;
39948;SDS011;29070;48.102;-1.652;2022-11-11T17:30:18;13.38;;;7.38;;
39948;SDS011;29070;48.102;-1.652;2022-11-11T17:35:18;13.83;;;7.60;;
39948;SDS011;29070;48.102;-1.652;2022-11-11T17:40:18;11.37;;;6.83;;
39948;SDS011;29070;48.102;-1.652;2022-11-11T17:45:19;13.18;;;6.63;;
39948;SDS011;29070;48.102;-1.652;2022-11-11T17:50:19;21.25;;;7.82;;
39948;SDS011;29070;48.102;-1.652;2022-11-11T17:55:20;13.10;;;7.00;;
39948;SDS011;29070;48.102;-1.652;2022-11-11T18:00:20;15.77;;;7.87;;
39948;SDS011;29070;48.102;-1.652;2022-11-11T18:05:21;15.88;;;8.25;;
39948;SDS011;29070;48.102;-1.652;2022-11-11T18:10:21;16.25;;;7.80;;
39948;SDS011;29070;48.102;-1.652;2022-11-11T18:15:22;14.37;;;7.93;;
39948;SDS011;29070;48.102;-1.652;2022-11-11T18:20:22;18.20;;;8.82;;
39948;SDS011;29070;48.102;-1.652;2022-11-11T18:25:22;15.50;;;7.73;;
39948;SDS011;29070;48.102;-1.652;2022-11-11T18:30:23;18.65;;;8.80;;
39948;SDS011;29070;48.102;-1.652;2022-11-11T18:35:24;18.55;;;9.27;;
39948;SDS011;29070;48.102;-1.652;2022-11-11T18:40:24;16.27;;;9.18;;
39948;SDS011;29070;48.102;-1.652;2022-11-11T18:45:26;18.70;;;8.80;;
39948;SDS011;29070;48.102;-1.652;2022-11-11T18:50:27;18.90;;;9.48;;
39948;SDS011;29070;48.102;-1.652;2022-11-11T18:55:27;15.48;;;8.52;;
39948;SDS011;29070;48.102;-1.652;2022-11-11T19:00:28;17.40;;;8.73;;
39948;SDS011;29070;48.102;-1.652;2022-11-11T19:05:28;15.47;;;9.13;;
39948;SDS011;29070;48.102;-1.652;2022-11-11T19:10:29;25.60;;;11.67;;
39948;SDS011;29070;48.102;-1.652;2022-11-11T19:15:29;23.30;;;12.95;;
39948;SDS011;29070;48.102;-1.652;2022-11-11T19:20:30;24.23;;;13.50;;
39948;SDS011;29070;48.102;-1.652;2022-11-11T19:25:31;35.33;;;16.23;;
39948;SDS011;29070;48.102;-1.652;2022-11-11T19:30:32;31.67;;;16.80;;
39948;SDS011;29070;48.102;-1.652;2022-11-11T19:35:32;42.78;;;19.40;;
39948;SDS011;29070;48.102;-1.652;2022-11-11T19:40:33;37.28;;;17.95;;
39948;SDS011;29070;48.102;-1.652;2022-11-11T19:45:36;29.67;;;14.23;;
39948;SDS011;29070;48.102;-1.652;2022-11-11T19:50:36;28.30;;;13.87;;
39948;SDS011;29070;48.102;-1.652;2022-11-11T19:55:37;23.33;;;10.82;;
39948;SDS011;29070;48.102;-1.652;2022-11-11T20:00:38;28.65;;;14.10;;
39948;SDS011;29070;48.102;-1.652;2022-11-11T20:05:39;26.77;;;14.80;;
39948;SDS011;29070;48.102;-1.652;2022-11-11T20:10:40;27.08;;;15.00;;
39948;SDS011;29070;48.102;-1.652;2022-11-11T20:15:43;31.48;;;14.55;;
39948;SDS011;29070;48.102;-1.652;2022-11-11T20:20:43;29.13;;;13.20;;
39948;SDS011;29070;48.102;-1.652;2022-11-11T20:25:43;25.70;;;13.17;;
39948;SDS011;29070;48.102;-1.652;2022-11-11T20:30:44;24.40;;;13.53;;
39948;SDS011;29070;48.102;-1.652;2022-11-11T20:35:44;27.07;;;14.47;;
39948;SDS011;29070;48.102;-1.652;2022-11-11T20:40:44;28.60;;;13.67;;
39948;SDS011;29070;48.102;-1.652;2022-11-11T20:45:45;25.33;;;12.80;;
39948;SDS011;29070;48.102;-1.652;2022-11-11T20:50:45;30.73;;;15.17;;
39948;SDS011;29070;48.102;-1.652;2022-11-11T20:55:45;27.73;;;14.93;;
39948;SDS011;29070;48.102;-1.652;2022-11-11T21:00:46;28.43;;;14.27;;
39948;SDS011;29070;48.102;-1.652;2022-11-11T21:05:46;31.13;;;15.73;;
39948;SDS011;29070;48.102;-1.652;2022-11-11T21:10:46;26.67;;;14.33;;
39948;SDS011;29070;48.102;-1.652;2022-11-11T21:15:47;33.70;;;16.40;;
39948;SDS011;29070;48.102;-1.652;2022-11-11T21:20:47;35.03;;;16.37;;
39948;SDS011;29070;48.102;-1.652;2022-11-11T21:25:47;31.63;;;15.10;;
39948;SDS011;29070;48.102;-1.652;2022-11-11T21:30:48;31.33;;;15.83;;
39948;SDS011;29070;48.102;-1.652;2022-11-11T21:35:48;28.33;;;14.83;;
39948;SDS011;29070;48.102;-1.652;2022-11-11T21:40:48;28.97;;;12.73;;
39948;SDS011;29070;48.102;-1.652;2022-11-11T21:45:49;19.23;;;11.17;;
39948;SDS011;29070;48.102;-1.652;2022-11-11T21:50:49;20.37;;;10.67;;
39948;SDS011;29070;48.102;-1.652;2022-11-11T21:55:49;23.70;;;12.30;;
39948;SDS011;29070;48.102;-1.652;2022-11-11T22:00:50;23.73;;;11.83;;
39948;SDS011;29070;48.102;-1.652;2022-11-11T22:05:50;24.10;;;12.07;;
39948;SDS011;29070;48.102;-1.652;2022-11-11T22:10:50;19.37;;;11.07;;
39948;SDS011;29070;48.102;-1.652;2022-11-11T22:15:56;21.60;;;11.30;;
39948;SDS011;29070;48.102;-1.652;2022-11-11T22:21:14;19.42;;;9.82;;
39948;SDS011;29070;48.102;-1.652;2022-11-11T22:26:19;18.92;;;9.80;;
39948;SDS011;29070;48.102;-1.652;2022-11-11T22:31:24;17.88;;;9.88;;
39948;SDS011;29070;48.102;-1.652;2022-11-11T22:41:27;15.98;;;8.68;;
39948;SDS011;29070;48.102;-1.652;2022-11-11T22:46:30;19.17;;;10.15;;
39948;SDS011;29070;48.102;-1.652;2022-11-11T22:51:31;17.70;;;10.07;;
39948;SDS011;29070;48.102;-1.652;2022-11-11T22:56:33;20.38;;;10.63;;
39948;SDS011;29070;48.102;-1.652;2022-11-11T23:01:34;21.20;;;11.25;;
39948;SDS011;29070;48.102;-1.652;2022-11-11T23:06:35;20.70;;;10.70;;
39948;SDS011;29070;48.102;-1.652;2022-11-11T23:11:37;21.00;;;10.35;;
39948;SDS011;29070;48.102;-1.652;2022-11-11T23:16:39;21.98;;;10.77;;
39948;SDS011;29070;48.102;-1.652;2022-11-11T23:21:40;21.13;;;11.10;;
39948;SDS011;29070;48.102;-1.652;2022-11-11T23:26:40;22.80;;;10.40;;
39948;SDS011;29070;48.102;-1.652;2022-11-11T23:31:42;22.92;;;10.95;;
39948;SDS011;29070;48.102;-1.652;2022-11-11T23:36:42;22.92;;;10.98;;
39948;SDS011;29070;48.102;-1.652;2022-11-11T23:41:43;19.80;;;10.77;;
39948;SDS011;29070;48.102;-1.652;2022-11-11T23:46:43;16.67;;;9.83;;
39948;SDS011;29070;48.102;-1.652;2022-11-11T23:51:43;26.80;;;11.10;;
39948;SDS011;29070;48.102;-1.652;2022-11-11T23:56:44;22.50;;;9.83;;
